METAR Data
IDs: Format: Raw Decoded Include TAF

Data at: 1309 UTC 15 Jul 2020

KTYS 151253Z 01004KT 10SM FEW050 FEW250 24/18 A3010 RMK AO2 SLP178 T02440178
KTYS 151153Z 05004KT 10SM FEW050 FEW250 21/17 A3008 RMK AO2 SLP174 T02110172 10222 20194 51012
KTYS 151053Z 03003KT 10SM FEW050 FEW250 20/17 A3007 RMK AO2 SLP171 T02000172
KTYS 150953Z 01005KT 10SM FEW250 21/16 A3006 RMK AO2 SLP166 T02060161
KTYS 150853Z 03004KT 10SM CLR 20/17 A3005 RMK AO2 SLP162 T02000167 53000
KTYS 150753Z 00000KT 10SM CLR 21/17 A3004 RMK AO2 SLP160 T02060167
KTYS 150653Z 00000KT 10SM CLR 22/16 A3004 RMK AO2 SLP159 T02170161
KTYS 150553Z 00000KT 10SM CLR 22/17 A3005 RMK AO2 SLP162 T02220167 10306 20217 58003
KTYS 150453Z 09003KT 10SM FEW080 22/17 A3006 RMK AO2 SLP165 T02220172 403390183
KTYS 150353Z 04004KT 10SM FEW003 24/16 A3006 RMK AO2 SLP168 FU FEW003 T02390161
KTYS 150341Z 00000KT 10SM FEW003 24/16 A3006 RMK AO2 FU FEW003 T02390161
KTYS 150253Z 00000KT 10SM FEW060 25/17 A3006 RMK AO2 SLP165 T02500167 53014
KTYS 150153Z 35003KT 10SM FEW060 27/15 A3004 RMK AO2 SLP159 T02720150
KTYS 150053Z 05004KT 10SM FEW060 28/14 A3002 RMK AO2 SLP155 T02830144
KTYS 142353Z 05008KT 10SM FEW060 31/14 A3001 RMK AO2 SLP150 T03110139 10339 20311 56002
KTYS 142253Z 33006KT 10SM FEW060 33/12 A3001 RMK AO2 SLP150 T03280117
KTYS 142153Z 31003KT 10SM FEW060 FEW250 33/12 A3001 RMK AO2 SLP151 T03330122
KTYS 142053Z 28006KT 10SM FEW060 FEW250 33/09 A3002 RMK AO2 SLP152 T03330089 55004
KTYS 141953Z 30008KT 10SM FEW060 FEW250 33/13 A3002 RMK AO2 SLP152 T03280128
KTYS 141853Z 05003KT 10SM FEW055 FEW250 33/12 A3002 RMK AO2 SLP153 T03280122
KTYS 141753Z VRB04KT 10SM FEW050 FEW250 32/14 A3003 RMK AO2 SLP157 T03170144 10317 20211 58009
KTYS 141653Z 08005KT 10SM FEW045 FEW250 31/15 A3005 RMK AO2 SLP161 T03060150
KTYS 141553Z VRB03KT 10SM FEW043 FEW200 29/17 A3006 RMK AO2 SLP165 T02940167
KTYS 141453Z 03004KT 10SM FEW042 FEW200 27/18 A3006 RMK AO2 SLP166 T02720178 50009
KTYS 141353Z 04004KT 10SM FEW045 FEW150 25/18 A3007 RMK AO2 SLP169 T02500183
KTYS 141253Z 06004KT 10SM FEW045 FEW180 23/17 A3006 RMK AO2 SLP168 T02280172
KTYS 141153Z 02005KT 10SM FEW050 21/17 A3003 RMK AO2 SLP158 T02110172 10222 20183 53020
KTYS 141053Z 36005KT 10SM FEW050 19/17 A3001 RMK AO2 SLP149 T01890172
KTYS 140953Z 00000KT 10SM FEW005 18/17 A2998 RMK AO2 SLP141 FU FEW005 T01830167
KTYS 140922Z 06005KT 10SM FEW005 18/17 A2997 RMK AO2 FU FEW005 T01830167
KTYS 140853Z 05005KT 10SM CLR 18/17 A2997 RMK AO2 SLP137 T01830167 58005
KTYS 140753Z 09003KT 10SM CLR 20/17 A2998 RMK AO2 SLP139 T02000172
KTYS 140653Z 06003KT 10SM CLR 20/17 A2999 RMK AO2 SLP142 T02000172
KTYS 140553Z 00000KT 10SM CLR 22/17 A2999 RMK AO2 SLP142 T02170167 10300 20217 50008
KTYS 140453Z 03004KT 10SM CLR 23/17 A2999 RMK AO2 SLP143 T02330167 403280194
KTYS 140353Z 00000KT 10SM CLR 24/16 A2998 RMK AO2 SLP141 T02440161
KTYS 140253Z 07004KT 10SM FEW130 25/16 A2996 RMK AO2 SLP135 T02500161 53017
KTYS 140153Z 36005KT 10SM SCT130 27/16 A2995 RMK AO2 SLP128 T02670156